sensor_id;sensor_type;location;lat;lon;timestamp;temperature;humidity
2839;DHT22;1427;48.510;9.060;2022-07-22T00:02:18;19.40;99.90
2839;DHT22;1427;48.510;9.060;2022-07-22T00:04:46;19.40;99.90
2839;DHT22;1427;48.510;9.060;2022-07-22T00:07:14;19.10;99.90
2839;DHT22;1427;48.510;9.060;2022-07-22T00:09:44;19.10;99.90
2839;DHT22;1427;48.510;9.060;2022-07-22T00:12:12;19.00;99.90
2839;DHT22;1427;48.510;9.060;2022-07-22T00:14:40;19.00;99.90
2839;DHT22;1427;48.510;9.060;2022-07-22T00:17:08;19.10;99.90
2839;DHT22;1427;48.510;9.060;2022-07-22T00:19:36;19.00;99.90
2839;DHT22;1427;48.510;9.060;2022-07-22T00:22:05;19.20;99.90
2839;DHT22;1427;48.510;9.060;2022-07-22T00:24:33;19.10;99.90
2839;DHT22;1427;48.510;9.060;2022-07-22T00:27:02;19.10;99.90
2839;DHT22;1427;48.510;9.060;2022-07-22T00:29:30;19.20;99.90
2839;DHT22;1427;48.510;9.060;2022-07-22T00:31:58;19.30;99.90
2839;DHT22;1427;48.510;9.060;2022-07-22T00:34:26;19.20;99.90
2839;DHT22;1427;48.510;9.060;2022-07-22T00:36:54;19.10;99.90
2839;DHT22;1427;48.510;9.060;2022-07-22T00:39:22;19.00;99.90
2839;DHT22;1427;48.510;9.060;2022-07-22T00:41:50;18.90;99.90
2839;DHT22;1427;48.510;9.060;2022-07-22T00:44:20;18.90;99.90
2839;DHT22;1427;48.510;9.060;2022-07-22T00:46:47;18.90;99.90
2839;DHT22;1427;48.510;9.060;2022-07-22T00:49:16;18.80;99.90
2839;DHT22;1427;48.510;9.060;2022-07-22T00:51:46;18.90;99.90
2839;DHT22;1427;48.510;9.060;2022-07-22T00:54:14;18.70;99.90
2839;DHT22;1427;48.510;9.060;2022-07-22T00:56:42;18.60;99.90
2839;DHT22;1427;48.510;9.060;2022-07-22T00:59:12;18.50;99.90
2839;DHT22;1427;48.510;9.060;2022-07-22T01:01:42;18.40;99.90
2839;DHT22;1427;48.510;9.060;2022-07-22T01:04:13;18.30;99.90
2839;DHT22;1427;48.510;9.060;2022-07-22T01:06:41;18.30;99.90
2839;DHT22;1427;48.510;9.060;2022-07-22T01:09:12;18.30;99.90
2839;DHT22;1427;48.510;9.060;2022-07-22T01:11:40;18.20;99.90
2839;DHT22;1427;48.510;9.060;2022-07-22T01:14:08;18.20;99.90
2839;DHT22;1427;48.510;9.060;2022-07-22T01:16:37;18.10;99.90
2839;DHT22;1427;48.510;9.060;2022-07-22T01:19:06;18.10;99.90
2839;DHT22;1427;48.510;9.060;2022-07-22T01:21:35;18.10;99.90
2839;DHT22;1427;48.510;9.060;2022-07-22T01:24:04;18.20;99.90
2839;DHT22;1427;48.510;9.060;2022-07-22T01:26:32;18.20;99.90
2839;DHT22;1427;48.510;9.060;2022-07-22T01:29:01;18.20;99.90
2839;DHT22;1427;48.510;9.060;2022-07-22T01:31:29;18.10;99.90
2839;DHT22;1427;48.510;9.060;2022-07-22T01:33:57;18.10;99.90
2839;DHT22;1427;48.510;9.060;2022-07-22T01:36:26;18.00;99.90
2839;DHT22;1427;48.510;9.060;2022-07-22T01:38:56;17.90;99.90
2839;DHT22;1427;48.510;9.060;2022-07-22T01:41:24;17.90;99.90
2839;DHT22;1427;48.510;9.060;2022-07-22T01:43:52;18.20;99.90
2839;DHT22;1427;48.510;9.060;2022-07-22T01:46:20;18.00;99.90
2839;DHT22;1427;48.510;9.060;2022-07-22T01:48:50;18.10;99.90
2839;DHT22;1427;48.510;9.060;2022-07-22T01:51:18;18.00;99.90
2839;DHT22;1427;48.510;9.060;2022-07-22T01:53:46;18.10;99.90
2839;DHT22;1427;48.510;9.060;2022-07-22T01:56:16;18.10;99.90
2839;DHT22;1427;48.510;9.060;2022-07-22T01:58:44;18.50;99.90
2839;DHT22;1427;48.510;9.060;2022-07-22T02:01:12;18.20;99.90
2839;DHT22;1427;48.510;9.060;2022-07-22T02:03:40;18.20;99.90
2839;DHT22;1427;48.510;9.060;2022-07-22T02:06:08;18.20;99.90
2839;DHT22;1427;48.510;9.060;2022-07-22T02:08:36;18.10;99.90
2839;DHT22;1427;48.510;9.060;2022-07-22T02:11:04;18.10;99.90
2839;DHT22;1427;48.510;9.060;2022-07-22T02:13:35;18.00;99.90
2839;DHT22;1427;48.510;9.060;2022-07-22T02:16:03;17.90;99.90
2839;DHT22;1427;48.510;9.060;2022-07-22T02:18:31;17.80;99.90
2839;DHT22;1427;48.510;9.060;2022-07-22T02:20:59;17.80;99.90
2839;DHT22;1427;48.510;9.060;2022-07-22T02:23:27;17.60;99.90
2839;DHT22;1427;48.510;9.060;2022-07-22T02:25:55;17.50;99.90
2839;DHT22;1427;48.510;9.060;2022-07-22T02:28:24;17.40;99.90
2839;DHT22;1427;48.510;9.060;2022-07-22T02:30:53;17.40;99.90
2839;DHT22;1427;48.510;9.060;2022-07-22T02:33:21;17.30;99.90
2839;DHT22;1427;48.510;9.060;2022-07-22T02:35:50;17.30;99.90
2839;DHT22;1427;48.510;9.060;2022-07-22T02:38:18;17.30;99.90
2839;DHT22;1427;48.510;9.060;2022-07-22T02:40:46;17.20;99.90
2839;DHT22;1427;48.510;9.060;2022-07-22T02:43:14;17.20;99.90
2839;DHT22;1427;48.510;9.060;2022-07-22T02:45:42;17.20;99.90
2839;DHT22;1427;48.510;9.060;2022-07-22T02:48:11;17.40;99.90
2839;DHT22;1427;48.510;9.060;2022-07-22T02:50:45;17.30;99.90
2839;DHT22;1427;48.510;9.060;2022-07-22T02:53:14;17.20;99.90
2839;DHT22;1427;48.510;9.060;2022-07-22T02:55:42;17.20;99.90
2839;DHT22;1427;48.510;9.060;2022-07-22T02:58:10;17.10;99.90
2839;DHT22;1427;48.510;9.060;2022-07-22T03:00:38;17.00;99.90
2839;DHT22;1427;48.510;9.060;2022-07-22T03:03:06;17.00;99.90
2839;DHT22;1427;48.510;9.060;2022-07-22T03:05:36;17.00;99.90
2839;DHT22;1427;48.510;9.060;2022-07-22T03:08:04;16.90;99.90
2839;DHT22;1427;48.510;9.060;2022-07-22T03:10:32;16.80;99.90
2839;DHT22;1427;48.510;9.060;2022-07-22T03:13:00;16.90;99.90
2839;DHT22;1427;48.510;9.060;2022-07-22T03:15:28;16.80;99.90
2839;DHT22;1427;48.510;9.060;2022-07-22T03:17:56;16.90;99.90
2839;DHT22;1427;48.510;9.060;2022-07-22T03:20:24;17.10;99.90
2839;DHT22;1427;48.510;9.060;2022-07-22T03:22:53;16.90;99.90
2839;DHT22;1427;48.510;9.060;2022-07-22T03:25:21;17.00;99.90
2839;DHT22;1427;48.510;9.060;2022-07-22T03:27:49;17.00;99.90
2839;DHT22;1427;48.510;9.060;2022-07-22T03:30:17;16.70;99.90
2839;DHT22;1427;48.510;9.060;2022-07-22T03:32:45;16.70;99.90
2839;DHT22;1427;48.510;9.060;2022-07-22T03:35:17;16.80;99.90
2839;DHT22;1427;48.510;9.060;2022-07-22T03:37:45;16.80;99.90
2839;DHT22;1427;48.510;9.060;2022-07-22T03:40:15;16.70;99.90
2839;DHT22;1427;48.510;9.060;2022-07-22T03:42:44;16.80;99.90
2839;DHT22;1427;48.510;9.060;2022-07-22T03:45:12;16.80;99.90
2839;DHT22;1427;48.510;9.060;2022-07-22T03:47:41;16.80;99.90
2839;DHT22;1427;48.510;9.060;2022-07-22T03:50:09;16.70;99.90
2839;DHT22;1427;48.510;9.060;2022-07-22T03:52:37;16.70;99.90
2839;DHT22;1427;48.510;9.060;2022-07-22T03:55:06;16.70;99.90
2839;DHT22;1427;48.510;9.060;2022-07-22T03:57:36;16.60;99.90
2839;DHT22;1427;48.510;9.060;2022-07-22T04:00:05;16.60;99.90
2839;DHT22;1427;48.510;9.060;2022-07-22T04:02:33;16.50;99.90
2839;DHT22;1427;48.510;9.060;2022-07-22T04:05:02;16.80;99.90
2839;DHT22;1427;48.510;9.060;2022-07-22T04:07:30;16.60;99.90
2839;DHT22;1427;48.510;9.060;2022-07-22T04:09:58;16.60;99.90
2839;DHT22;1427;48.510;9.060;2022-07-22T04:12:34;16.60;99.90
2839;DHT22;1427;48.510;9.060;2022-07-22T04:15:04;16.70;99.90
2839;DHT22;1427;48.510;9.060;2022-07-22T04:17:32;16.80;99.90
2839;DHT22;1427;48.510;9.060;2022-07-22T04:20:01;16.90;99.90
2839;DHT22;1427;48.510;9.060;2022-07-22T04:22:29;17.20;99.90
2839;DHT22;1427;48.510;9.060;2022-07-22T04:24:57;17.10;99.90
2839;DHT22;1427;48.510;9.060;2022-07-22T04:27:25;17.10;99.90
2839;DHT22;1427;48.510;9.060;2022-07-22T04:29:53;17.10;99.90
2839;DHT22;1427;48.510;9.060;2022-07-22T04:32:22;17.20;99.90
2839;DHT22;1427;48.510;9.060;2022-07-22T04:34:50;17.40;99.90
2839;DHT22;1427;48.510;9.060;2022-07-22T04:37:18;17.30;99.90
2839;DHT22;1427;48.510;9.060;2022-07-22T04:39:46;17.30;99.90
2839;DHT22;1427;48.510;9.060;2022-07-22T04:42:14;17.20;99.90
2839;DHT22;1427;48.510;9.060;2022-07-22T04:44:42;17.20;99.90
2839;DHT22;1427;48.510;9.060;2022-07-22T04:47:11;17.20;99.90
2839;DHT22;1427;48.510;9.060;2022-07-22T04:49:40;17.20;99.90
2839;DHT22;1427;48.510;9.060;2022-07-22T04:52:08;17.20;99.90
2839;DHT22;1427;48.510;9.060;2022-07-22T04:54:37;17.20;99.90
2839;DHT22;1427;48.510;9.060;2022-07-22T04:57:05;17.30;99.90
2839;DHT22;1427;48.510;9.060;2022-07-22T04:59:33;17.30;99.90
2839;DHT22;1427;48.510;9.060;2022-07-22T05:02:02;17.40;99.90
2839;DHT22;1427;48.510;9.060;2022-07-22T05:04:30;17.40;99.90
2839;DHT22;1427;48.510;9.060;2022-07-22T05:07:00;17.50;99.90
2839;DHT22;1427;48.510;9.060;2022-07-22T05:09:29;17.60;99.90
2839;DHT22;1427;48.510;9.060;2022-07-22T05:11:57;17.60;99.90
2839;DHT22;1427;48.510;9.060;2022-07-22T05:14:25;17.80;99.90
2839;DHT22;1427;48.510;9.060;2022-07-22T05:16:53;18.00;99.90
2839;DHT22;1427;48.510;9.060;2022-07-22T05:19:21;18.00;99.90
2839;DHT22;1427;48.510;9.060;2022-07-22T05:21:49;18.00;99.90
2839;DHT22;1427;48.510;9.060;2022-07-22T05:24:19;18.20;99.90
2839;DHT22;1427;48.510;9.060;2022-07-22T05:26:46;18.30;99.90
2839;DHT22;1427;48.510;9.060;2022-07-22T05:29:15;18.20;99.90
2839;DHT22;1427;48.510;9.060;2022-07-22T05:31:43;18.10;99.90
2839;DHT22;1427;48.510;9.060;2022-07-22T05:34:11;18.20;99.90
2839;DHT22;1427;48.510;9.060;2022-07-22T05:36:39;18.50;99.90
2839;DHT22;1427;48.510;9.060;2022-07-22T05:39:07;18.70;99.90
2839;DHT22;1427;48.510;9.060;2022-07-22T05:41:36;18.90;99.90
2839;DHT22;1427;48.510;9.060;2022-07-22T05:44:05;18.90;99.90
2839;DHT22;1427;48.510;9.060;2022-07-22T05:46:33;19.00;99.90
2839;DHT22;1427;48.510;9.060;2022-07-22T05:49:02;18.90;99.90
2839;DHT22;1427;48.510;9.060;2022-07-22T05:51:30;19.20;99.90
2839;DHT22;1427;48.510;9.060;2022-07-22T05:53:58;19.50;99.90
2839;DHT22;1427;48.510;9.060;2022-07-22T05:56:26;19.60;99.90
2839;DHT22;1427;48.510;9.060;2022-07-22T05:58:55;19.80;99.90
2839;DHT22;1427;48.510;9.060;2022-07-22T06:01:24;19.80;99.90
2839;DHT22;1427;48.510;9.060;2022-07-22T06:03:52;19.60;99.90
2839;DHT22;1427;48.510;9.060;2022-07-22T06:06:20;19.60;99.90
2839;DHT22;1427;48.510;9.060;2022-07-22T06:08:48;19.40;99.90
2839;DHT22;1427;48.510;9.060;2022-07-22T06:11:20;19.80;99.90
2839;DHT22;1427;48.510;9.060;2022-07-22T06:13:48;20.20;99.90
2839;DHT22;1427;48.510;9.060;2022-07-22T06:16:17;20.50;99.90
2839;DHT22;1427;48.510;9.060;2022-07-22T06:18:45;20.70;99.90
2839;DHT22;1427;48.510;9.060;2022-07-22T06:21:13;20.40;99.90
2839;DHT22;1427;48.510;9.060;2022-07-22T06:23:41;20.40;99.90
2839;DHT22;1427;48.510;9.060;2022-07-22T06:26:09;20.50;99.90
2839;DHT22;1427;48.510;9.060;2022-07-22T06:28:37;20.70;99.90
2839;DHT22;1427;48.510;9.060;2022-07-22T06:31:05;20.90;99.90
2839;DHT22;1427;48.510;9.060;2022-07-22T06:33:35;20.90;99.90
2839;DHT22;1427;48.510;9.060;2022-07-22T06:36:04;20.90;99.90
2839;DHT22;1427;48.510;9.060;2022-07-22T06:38:33;21.20;99.90
2839;DHT22;1427;48.510;9.060;2022-07-22T06:41:07;21.20;99.90
2839;DHT22;1427;48.510;9.060;2022-07-22T06:43:35;21.40;99.90
2839;DHT22;1427;48.510;9.060;2022-07-22T06:46:03;21.60;99.90
2839;DHT22;1427;48.510;9.060;2022-07-22T06:48:31;21.80;99.90
2839;DHT22;1427;48.510;9.060;2022-07-22T06:51:01;22.20;99.90
2839;DHT22;1427;48.510;9.060;2022-07-22T06:53:29;22.10;99.90
2839;DHT22;1427;48.510;9.060;2022-07-22T06:55:57;22.30;99.90
2839;DHT22;1427;48.510;9.060;2022-07-22T06:58:32;22.50;99.90
2839;DHT22;1427;48.510;9.060;2022-07-22T07:01:00;22.90;99.90
2839;DHT22;1427;48.510;9.060;2022-07-22T07:03:28;23.10;99.90
2839;DHT22;1427;48.510;9.060;2022-07-22T07:06:04;23.30;99.90
2839;DHT22;1427;48.510;9.060;2022-07-22T07:08:34;23.40;99.90
2839;DHT22;1427;48.510;9.060;2022-07-22T07:11:06;23.50;99.90
2839;DHT22;1427;48.510;9.060;2022-07-22T07:13:34;23.50;99.90
2839;DHT22;1427;48.510;9.060;2022-07-22T07:16:03;23.80;99.90
2839;DHT22;1427;48.510;9.060;2022-07-22T07:18:31;24.00;99.90
2839;DHT22;1427;48.510;9.060;2022-07-22T07:20:59;24.00;99.90
2839;DHT22;1427;48.510;9.060;2022-07-22T07:23:29;24.20;99.90
2839;DHT22;1427;48.510;9.060;2022-07-22T07:25:57;24.20;99.90
2839;DHT22;1427;48.510;9.060;2022-07-22T07:28:25;24.60;99.90
2839;DHT22;1427;48.510;9.060;2022-07-22T07:30:53;24.70;99.90
2839;DHT22;1427;48.510;9.060;2022-07-22T07:33:21;25.00;99.80
2839;DHT22;1427;48.510;9.060;2022-07-22T07:35:49;25.00;99.90
2839;DHT22;1427;48.510;9.060;2022-07-22T07:38:17;25.10;99.90
2839;DHT22;1427;48.510;9.060;2022-07-22T07:40:49;25.30;99.50
2839;DHT22;1427;48.510;9.060;2022-07-22T07:43:17;25.40;99.30
2839;DHT22;1427;48.510;9.060;2022-07-22T07:45:45;25.60;99.20
2839;DHT22;1427;48.510;9.060;2022-07-22T07:48:13;25.80;98.60
2839;DHT22;1427;48.510;9.060;2022-07-22T07:50:41;25.90;98.20
2839;DHT22;1427;48.510;9.060;2022-07-22T07:53:12;25.90;98.30
2839;DHT22;1427;48.510;9.060;2022-07-22T07:55:44;26.00;98.10
2839;DHT22;1427;48.510;9.060;2022-07-22T07:58:14;26.00;97.00
2839;DHT22;1427;48.510;9.060;2022-07-22T08:00:42;25.90;98.20
2839;DHT22;1427;48.510;9.060;2022-07-22T08:03:10;26.00;98.50
2839;DHT22;1427;48.510;9.060;2022-07-22T08:05:39;26.20;98.10
2839;DHT22;1427;48.510;9.060;2022-07-22T08:08:07;26.40;98.00
2839;DHT22;1427;48.510;9.060;2022-07-22T08:10:41;26.60;97.60
2839;DHT22;1427;48.510;9.060;2022-07-22T08:13:28;26.60;97.10
2839;DHT22;1427;48.510;9.060;2022-07-22T08:15:56;26.70;96.60
2839;DHT22;1427;48.510;9.060;2022-07-22T08:18:24;26.70;97.50
2839;DHT22;1427;48.510;9.060;2022-07-22T08:20:53;26.70;97.30
2839;DHT22;1427;48.510;9.060;2022-07-22T08:23:22;26.90;96.70
2839;DHT22;1427;48.510;9.060;2022-07-22T08:25:52;27.00;97.60
2839;DHT22;1427;48.510;9.060;2022-07-22T08:28:20;27.00;97.30
2839;DHT22;1427;48.510;9.060;2022-07-22T08:30:50;27.10;96.50
2839;DHT22;1427;48.510;9.060;2022-07-22T08:33:18;27.30;96.40
2839;DHT22;1427;48.510;9.060;2022-07-22T08:35:46;27.30;95.30
2839;DHT22;1427;48.510;9.060;2022-07-22T08:38:14;27.20;96.40
2839;DHT22;1427;48.510;9.060;2022-07-22T08:40:42;27.40;96.20
2839;DHT22;1427;48.510;9.060;2022-07-22T08:43:10;27.50;95.00
2839;DHT22;1427;48.510;9.060;2022-07-22T08:45:39;27.60;96.40
2839;DHT22;1427;48.510;9.060;2022-07-22T08:48:10;27.80;96.10
2839;DHT22;1427;48.510;9.060;2022-07-22T08:50:38;28.00;96.20
2839;DHT22;1427;48.510;9.060;2022-07-22T08:53:08;28.30;94.90
2839;DHT22;1427;48.510;9.060;2022-07-22T08:55:41;28.50;94.70
2839;DHT22;1427;48.510;9.060;2022-07-22T08:58:09;28.60;95.20
2839;DHT22;1427;48.510;9.060;2022-07-22T09:00:38;28.70;94.30
2839;DHT22;1427;48.510;9.060;2022-07-22T09:03:19;28.40;94.10
2839;DHT22;1427;48.510;9.060;2022-07-22T09:05:50;28.40;94.00
2839;DHT22;1427;48.510;9.060;2022-07-22T09:08:18;28.40;94.50
2839;DHT22;1427;48.510;9.060;2022-07-22T09:10:47;28.50;94.40
2839;DHT22;1427;48.510;9.060;2022-07-22T09:13:16;28.70;93.40
2839;DHT22;1427;48.510;9.060;2022-07-22T09:15:49;28.90;92.70
2839;DHT22;1427;48.510;9.060;2022-07-22T09:18:18;29.00;92.90
2839;DHT22;1427;48.510;9.060;2022-07-22T09:20:47;29.00;93.60
2839;DHT22;1427;48.510;9.060;2022-07-22T09:23:17;29.20;92.00
2839;DHT22;1427;48.510;9.060;2022-07-22T09:25:47;29.30;93.60
2839;DHT22;1427;48.510;9.060;2022-07-22T09:28:18;29.60;92.10
2839;DHT22;1427;48.510;9.060;2022-07-22T09:30:51;29.70;92.30
2839;DHT22;1427;48.510;9.060;2022-07-22T09:33:22;29.80;92.70
2839;DHT22;1427;48.510;9.060;2022-07-22T09:35:52;29.80;91.10
2839;DHT22;1427;48.510;9.060;2022-07-22T09:38:28;29.70;92.10
2839;DHT22;1427;48.510;9.060;2022-07-22T09:40:58;29.70;92.30
2839;DHT22;1427;48.510;9.060;2022-07-22T09:43:27;29.70;92.50
2839;DHT22;1427;48.510;9.060;2022-07-22T09:46:00;29.90;92.40
2839;DHT22;1427;48.510;9.060;2022-07-22T09:48:30;30.10;92.60
2839;DHT22;1427;48.510;9.060;2022-07-22T09:50:58;30.30;92.20
2839;DHT22;1427;48.510;9.060;2022-07-22T09:53:28;30.40;91.60
2839;DHT22;1427;48.510;9.060;2022-07-22T09:55:56;30.50;91.90
2839;DHT22;1427;48.510;9.060;2022-07-22T09:58:25;30.70;91.40
2839;DHT22;1427;48.510;9.060;2022-07-22T10:01:00;30.80;91.50
2839;DHT22;1427;48.510;9.060;2022-07-22T10:03:32;30.90;91.30
2839;DHT22;1427;48.510;9.060;2022-07-22T10:06:02;30.90;91.60
2839;DHT22;1427;48.510;9.060;2022-07-22T10:08:31;30.90;91.20
2839;DHT22;1427;48.510;9.060;2022-07-22T10:11:02;31.00;91.50
2839;DHT22;1427;48.510;9.060;2022-07-22T10:13:31;30.80;90.00
2839;DHT22;1427;48.510;9.060;2022-07-22T10:15:59;30.90;91.20
2839;DHT22;1427;48.510;9.060;2022-07-22T10:18:28;30.90;91.30
2839;DHT22;1427;48.510;9.060;2022-07-22T10:21:04;31.10;91.00
2839;DHT22;1427;48.510;9.060;2022-07-22T10:23:32;31.30;90.00
2839;DHT22;1427;48.510;9.060;2022-07-22T10:26:03;31.40;90.80
2839;DHT22;1427;48.510;9.060;2022-07-22T10:28:33;31.60;90.70
2839;DHT22;1427;48.510;9.060;2022-07-22T10:31:18;31.60;89.10
2839;DHT22;1427;48.510;9.060;2022-07-22T10:33:49;31.60;89.70
2839;DHT22;1427;48.510;9.060;2022-07-22T10:36:31;31.60;90.40
2839;DHT22;1427;48.510;9.060;2022-07-22T10:39:06;31.70;84.00
2839;DHT22;1427;48.510;9.060;2022-07-22T10:41:36;31.40;86.80
2839;DHT22;1427;48.510;9.060;2022-07-22T10:44:04;31.00;85.40
2839;DHT22;1427;48.510;9.060;2022-07-22T10:46:49;31.00;86.60
2839;DHT22;1427;48.510;9.060;2022-07-22T10:49:19;30.70;85.00
2839;DHT22;1427;48.510;9.060;2022-07-22T10:52:13;30.50;87.10
2839;DHT22;1427;48.510;9.060;2022-07-22T10:55:15;30.70;86.90
2839;DHT22;1427;48.510;9.060;2022-07-22T10:57:43;30.60;86.00
2839;DHT22;1427;48.510;9.060;2022-07-22T11:00:12;30.60;87.20
2839;DHT22;1427;48.510;9.060;2022-07-22T11:02:41;31.00;88.60
2839;DHT22;1427;48.510;9.060;2022-07-22T11:05:09;31.20;85.30
2839;DHT22;1427;48.510;9.060;2022-07-22T11:07:42;31.40;87.90
2839;DHT22;1427;48.510;9.060;2022-07-22T11:10:12;31.70;87.20
2839;DHT22;1427;48.510;9.060;2022-07-22T11:12:46;31.90;85.80
2839;DHT22;1427;48.510;9.060;2022-07-22T11:15:15;31.90;86.40
2839;DHT22;1427;48.510;9.060;2022-07-22T11:17:43;32.10;85.90
2839;DHT22;1427;48.510;9.060;2022-07-22T11:20:12;32.10;84.30
2839;DHT22;1427;48.510;9.060;2022-07-22T11:22:41;32.20;85.80
2839;DHT22;1427;48.510;9.060;2022-07-22T11:25:14;32.30;84.50
2839;DHT22;1427;48.510;9.060;2022-07-22T11:27:50;32.50;84.70
2839;DHT22;1427;48.510;9.060;2022-07-22T11:30:18;32.40;85.90
2839;DHT22;1427;48.510;9.060;2022-07-22T11:32:48;32.50;86.10
2839;DHT22;1427;48.510;9.060;2022-07-22T11:35:16;32.60;83.90
2839;DHT22;1427;48.510;9.060;2022-07-22T11:37:55;32.60;84.80
2839;DHT22;1427;48.510;9.060;2022-07-22T11:40:23;32.70;83.10
2839;DHT22;1427;48.510;9.060;2022-07-22T11:43:01;32.70;83.60
2839;DHT22;1427;48.510;9.060;2022-07-22T11:45:29;32.80;83.70
2839;DHT22;1427;48.510;9.060;2022-07-22T11:47:57;32.70;83.90
2839;DHT22;1427;48.510;9.060;2022-07-22T11:50:34;32.80;82.50
2839;DHT22;1427;48.510;9.060;2022-07-22T11:53:03;32.30;79.90
2839;DHT22;1427;48.510;9.060;2022-07-22T11:55:34;31.40;80.90
2839;DHT22;1427;48.510;9.060;2022-07-22T11:58:02;31.40;85.00
2839;DHT22;1427;48.510;9.060;2022-07-22T12:00:31;31.50;82.90
2839;DHT22;1427;48.510;9.060;2022-07-22T12:02:59;31.80;84.50
2839;DHT22;1427;48.510;9.060;2022-07-22T12:05:27;32.10;82.00
2839;DHT22;1427;48.510;9.060;2022-07-22T12:07:59;32.30;84.20
2839;DHT22;1427;48.510;9.060;2022-07-22T12:10:29;32.50;84.80
2839;DHT22;1427;48.510;9.060;2022-07-22T12:12:57;32.70;82.30
2839;DHT22;1427;48.510;9.060;2022-07-22T12:15:26;32.80;82.10
2839;DHT22;1427;48.510;9.060;2022-07-22T12:18:16;32.60;80.90
2839;DHT22;1427;48.510;9.060;2022-07-22T12:20:45;32.70;80.40
2839;DHT22;1427;48.510;9.060;2022-07-22T12:23:20;32.90;80.60
2839;DHT22;1427;48.510;9.060;2022-07-22T12:25:51;32.80;81.00
2839;DHT22;1427;48.510;9.060;2022-07-22T12:28:19;32.90;81.90
2839;DHT22;1427;48.510;9.060;2022-07-22T12:30:48;33.00;81.20
2839;DHT22;1427;48.510;9.060;2022-07-22T12:33:18;33.00;80.60
2839;DHT22;1427;48.510;9.060;2022-07-22T12:35:59;33.10;80.20
2839;DHT22;1427;48.510;9.060;2022-07-22T12:38:27;33.20;81.20
2839;DHT22;1427;48.510;9.060;2022-07-22T12:41:24;33.30;80.20
2839;DHT22;1427;48.510;9.060;2022-07-22T12:43:52;33.30;79.60
2839;DHT22;1427;48.510;9.060;2022-07-22T12:46:21;33.40;80.40
2839;DHT22;1427;48.510;9.060;2022-07-22T12:48:54;33.30;78.50
2839;DHT22;1427;48.510;9.060;2022-07-22T12:51:27;33.30;79.20
2839;DHT22;1427;48.510;9.060;2022-07-22T12:53:55;33.20;77.70
2839;DHT22;1427;48.510;9.060;2022-07-22T12:56:24;33.10;77.50
2839;DHT22;1427;48.510;9.060;2022-07-22T12:59:00;33.10;79.70
2839;DHT22;1427;48.510;9.060;2022-07-22T13:01:28;33.10;79.90
2839;DHT22;1427;48.510;9.060;2022-07-22T13:03:56;33.30;80.10
2839;DHT22;1427;48.510;9.060;2022-07-22T13:06:25;33.50;80.10
2839;DHT22;1427;48.510;9.060;2022-07-22T13:08:53;33.60;79.00
2839;DHT22;1427;48.510;9.060;2022-07-22T13:11:21;33.70;79.50
2839;DHT22;1427;48.510;9.060;2022-07-22T13:13:50;33.60;78.50
2839;DHT22;1427;48.510;9.060;2022-07-22T13:16:18;33.50;78.70
2839;DHT22;1427;48.510;9.060;2022-07-22T13:18:47;33.50;78.90
2839;DHT22;1427;48.510;9.060;2022-07-22T13:21:15;33.40;78.60
2839;DHT22;1427;48.510;9.060;2022-07-22T13:23:43;33.50;78.50
2839;DHT22;1427;48.510;9.060;2022-07-22T13:26:11;33.60;79.10
2839;DHT22;1427;48.510;9.060;2022-07-22T13:28:39;33.60;77.80
2839;DHT22;1427;48.510;9.060;2022-07-22T13:31:08;33.50;76.70
2839;DHT22;1427;48.510;9.060;2022-07-22T13:33:37;33.50;77.70
2839;DHT22;1427;48.510;9.060;2022-07-22T13:36:05;33.60;77.40
2839;DHT22;1427;48.510;9.060;2022-07-22T13:38:34;33.50;76.60
2839;DHT22;1427;48.510;9.060;2022-07-22T13:41:01;33.60;77.10
2839;DHT22;1427;48.510;9.060;2022-07-22T13:43:29;33.60;76.80
2839;DHT22;1427;48.510;9.060;2022-07-22T13:45:58;33.60;76.30
2839;DHT22;1427;48.510;9.060;2022-07-22T13:48:27;33.60;76.00
2839;DHT22;1427;48.510;9.060;2022-07-22T13:50:55;33.50;76.30
2839;DHT22;1427;48.510;9.060;2022-07-22T13:53:23;33.50;74.90
2839;DHT22;1427;48.510;9.060;2022-07-22T13:55:51;33.50;74.50
2839;DHT22;1427;48.510;9.060;2022-07-22T13:58:19;33.40;73.60
2839;DHT22;1427;48.510;9.060;2022-07-22T14:00:47;33.40;75.10
2839;DHT22;1427;48.510;9.060;2022-07-22T14:03:15;33.30;74.90
2839;DHT22;1427;48.510;9.060;2022-07-22T14:05:45;33.30;74.40
2839;DHT22;1427;48.510;9.060;2022-07-22T14:08:13;33.30;71.70
2839;DHT22;1427;48.510;9.060;2022-07-22T14:10:41;33.30;71.70
2839;DHT22;1427;48.510;9.060;2022-07-22T14:13:09;33.20;70.90
2839;DHT22;1427;48.510;9.060;2022-07-22T14:15:38;33.00;72.50
2839;DHT22;1427;48.510;9.060;2022-07-22T14:18:06;33.00;72.00
2839;DHT22;1427;48.510;9.060;2022-07-22T14:20:34;33.10;74.30
2839;DHT22;1427;48.510;9.060;2022-07-22T14:23:04;33.10;75.50
2839;DHT22;1427;48.510;9.060;2022-07-22T14:25:32;33.20;72.00
2839;DHT22;1427;48.510;9.060;2022-07-22T14:28:00;33.10;72.70
2839;DHT22;1427;48.510;9.060;2022-07-22T14:30:48;33.10;74.00
2839;DHT22;1427;48.510;9.060;2022-07-22T14:33:16;33.20;74.10
2839;DHT22;1427;48.510;9.060;2022-07-22T14:35:44;33.40;73.30
2839;DHT22;1427;48.510;9.060;2022-07-22T14:38:14;33.40;73.30
2839;DHT22;1427;48.510;9.060;2022-07-22T14:40:42;33.30;70.70
2839;DHT22;1427;48.510;9.060;2022-07-22T14:43:10;33.10;72.70
2839;DHT22;1427;48.510;9.060;2022-07-22T14:45:58;33.10;73.20
2839;DHT22;1427;48.510;9.060;2022-07-22T14:48:26;33.10;73.60
2839;DHT22;1427;48.510;9.060;2022-07-22T14:50:54;33.10;75.00
2839;DHT22;1427;48.510;9.060;2022-07-22T14:53:24;33.20;75.10
2839;DHT22;1427;48.510;9.060;2022-07-22T14:55:52;33.30;74.40
2839;DHT22;1427;48.510;9.060;2022-07-22T14:58:20;33.30;73.60
2839;DHT22;1427;48.510;9.060;2022-07-22T15:00:48;33.10;72.10
2839;DHT22;1427;48.510;9.060;2022-07-22T15:03:16;33.10;73.00
2839;DHT22;1427;48.510;9.060;2022-07-22T15:05:44;33.00;72.50
2839;DHT22;1427;48.510;9.060;2022-07-22T15:08:13;33.10;71.40
2839;DHT22;1427;48.510;9.060;2022-07-22T15:10:42;33.10;71.40
2839;DHT22;1427;48.510;9.060;2022-07-22T15:13:10;33.00;71.40
2839;DHT22;1427;48.510;9.060;2022-07-22T15:15:39;33.10;72.90
2839;DHT22;1427;48.510;9.060;2022-07-22T15:18:07;33.10;72.00
2839;DHT22;1427;48.510;9.060;2022-07-22T15:20:35;33.10;71.90
2839;DHT22;1427;48.510;9.060;2022-07-22T15:23:04;33.20;71.80
2839;DHT22;1427;48.510;9.060;2022-07-22T15:25:34;33.20;72.30
2839;DHT22;1427;48.510;9.060;2022-07-22T15:28:04;33.20;70.20
2839;DHT22;1427;48.510;9.060;2022-07-22T15:30:53;33.10;72.30
2839;DHT22;1427;48.510;9.060;2022-07-22T15:33:22;33.10;71.40
2839;DHT22;1427;48.510;9.060;2022-07-22T15:36:02;33.10;72.20
2839;DHT22;1427;48.510;9.060;2022-07-22T15:38:32;33.10;72.80
2839;DHT22;1427;48.510;9.060;2022-07-22T15:41:00;33.10;71.20
2839;DHT22;1427;48.510;9.060;2022-07-22T15:43:29;33.20;72.60
2839;DHT22;1427;48.510;9.060;2022-07-22T15:45:57;33.30;70.70
2839;DHT22;1427;48.510;9.060;2022-07-22T15:48:25;33.20;71.40
2839;DHT22;1427;48.510;9.060;2022-07-22T15:50:53;33.20;71.40
2839;DHT22;1427;48.510;9.060;2022-07-22T15:53:28;33.10;71.20
2839;DHT22;1427;48.510;9.060;2022-07-22T15:55:56;33.10;71.30
2839;DHT22;1427;48.510;9.060;2022-07-22T15:58:24;33.00;71.60
2839;DHT22;1427;48.510;9.060;2022-07-22T16:01:31;33.00;72.10
2839;DHT22;1427;48.510;9.060;2022-07-22T16:03:59;33.10;72.00
2839;DHT22;1427;48.510;9.060;2022-07-22T16:06:27;33.00;70.90
2839;DHT22;1427;48.510;9.060;2022-07-22T16:08:56;33.00;70.80
2839;DHT22;1427;48.510;9.060;2022-07-22T16:11:25;33.00;71.80
2839;DHT22;1427;48.510;9.060;2022-07-22T16:13:53;33.00;71.80
2839;DHT22;1427;48.510;9.060;2022-07-22T16:16:21;33.00;71.20
2839;DHT22;1427;48.510;9.060;2022-07-22T16:18:51;33.00;71.50